createdAt,value
2022-09-21T00:01:14.087Z,99574.59
2022-09-21T00:03:42.148Z,99569.72
2022-09-21T00:06:20.232Z,99571.34
2022-09-21T00:08:47.979Z,99567.53
2022-09-21T00:11:28.123Z,99572.41
2022-09-21T00:13:59.803Z,99573.25
2022-09-21T00:16:27.710Z,99574.56
2022-09-21T00:18:54.624Z,99575.09
2022-09-21T00:21:21.846Z,99566.19
2022-09-21T00:23:49.112Z,99569.94
2022-09-21T00:26:19.482Z,99568.53
2022-09-21T00:28:46.856Z,99572.06
2022-09-21T00:31:17.581Z,99574.53
2022-09-21T00:33:44.761Z,99570.75
2022-09-21T00:36:19.352Z,99569.66
2022-09-21T00:38:50.516Z,99567.97
2022-09-21T00:41:17.344Z,99574.72
2022-09-21T00:44:06.076Z,99570.72
2022-09-21T00:46:32.913Z,99562.09
2022-09-21T00:48:59.614Z,99566.63
2022-09-21T00:51:26.517Z,99566.88
2022-09-21T00:54:00.815Z,99568.75
2022-09-21T00:56:28.668Z,99558.22
2022-09-21T00:58:55.837Z,99557.13
2022-09-21T01:01:24.881Z,99562.25
2022-09-21T01:03:53.404Z,99562.78
2022-09-21T01:06:21.358Z,99565.75
2022-09-21T01:08:55.006Z,99557.38
2022-09-21T01:11:48.176Z,99564.66
2022-09-21T01:14:37.915Z,99560.03
2022-09-21T01:17:26.134Z,99568.16
2022-09-21T01:20:20.099Z,99564.91
2022-09-21T01:23:22.261Z,99558.94
2022-09-21T01:26:06.519Z,99560.31
2022-09-21T01:29:06.611Z,99562.19
2022-09-21T01:31:41.446Z,99561.94
2022-09-21T01:34:15.932Z,99565.44
2022-09-21T01:36:47.301Z,99573.81
2022-09-21T01:39:16.879Z,99567.84
2022-09-21T01:41:46.026Z,99575.38
2022-09-21T01:44:19.851Z,99574.72
2022-09-21T01:46:48.305Z,99567.72
2022-09-21T01:49:24.488Z,99571.16
2022-09-21T01:52:02.072Z,99580.25
2022-09-21T01:54:39.564Z,99576.97
2022-09-21T01:57:23.396Z,99578.81
2022-09-21T01:59:54.333Z,99574.78
2022-09-21T02:02:32.037Z,99577.78
2022-09-21T02:05:02.915Z,99579.63
2022-09-21T02:07:32.029Z,99574.47
2022-09-21T02:10:01.621Z,99572.13
2022-09-21T02:12:30.398Z,99564.28
2022-09-21T02:14:57.945Z,99571.59
2022-09-21T02:17:55.689Z,99572.47
2022-09-21T02:20:32.237Z,99570.28
2022-09-21T02:23:36.911Z,99573.56
2022-09-21T02:26:10.528Z,99567.63
2022-09-21T02:28:51.477Z,99573.00
2022-09-21T02:31:30.556Z,99565.91
2022-09-21T02:34:24.508Z,99571.81
2022-09-21T02:37:06.991Z,99565.06
2022-09-21T02:40:28.928Z,99558.81
2022-09-21T02:43:01.731Z,99565.53
2022-09-21T02:45:34.208Z,99561.22
2022-09-21T02:48:35.056Z,99560.44
2022-09-21T02:51:16.935Z,99558.84
2022-09-21T02:53:46.696Z,99563.41
2022-09-21T02:56:17.265Z,99562.34
2022-09-21T02:58:49.737Z,99559.81
2022-09-21T03:01:19.051Z,99560.56
2022-09-21T03:03:45.721Z,99557.34
2022-09-21T03:06:12.537Z,99554.72
2022-09-21T03:08:39.579Z,99556.59
2022-09-21T03:11:06.808Z,99557.41
2022-09-21T03:13:34.702Z,99559.31
2022-09-21T03:16:03.710Z,99553.38
2022-09-21T03:18:31.647Z,99562.00
2022-09-21T03:20:58.924Z,99550.66
2022-09-21T03:23:26.143Z,99554.66
2022-09-21T03:25:54.566Z,99554.38
2022-09-21T03:28:21.818Z,99555.22
2022-09-21T03:30:50.268Z,99554.09
2022-09-21T03:33:18.990Z,99561.31
2022-09-21T03:35:48.188Z,99561.28
2022-09-21T03:38:16.750Z,99574.25
2022-09-21T03:40:48.934Z,99565.38
2022-09-21T03:43:16.419Z,99572.66
2022-09-21T03:45:43.682Z,99572.66
2022-09-21T03:48:11.682Z,99573.75
2022-09-21T03:50:39.049Z,99577.75
2022-09-21T03:53:05.970Z,99572.03
2022-09-21T03:55:33.262Z,99573.09
2022-09-21T03:58:00.531Z,99578.19
2022-09-21T04:00:27.595Z,99574.06
2022-09-21T04:02:54.968Z,99584.00
2022-09-21T04:05:22.251Z,99577.13
2022-09-21T04:07:48.975Z,99582.81
2022-09-21T04:10:19.092Z,99583.69
2022-09-21T04:12:46.636Z,99581.59
2022-09-21T04:15:21.721Z,99585.00
2022-09-21T04:17:51.436Z,99582.06
2022-09-21T04:20:19.237Z,99583.13
2022-09-21T04:22:47.132Z,99583.13
2022-09-21T04:25:15.241Z,99585.84
2022-09-21T04:27:42.555Z,99586.41
2022-09-21T04:30:12.357Z,99589.28
2022-09-21T04:32:39.170Z,99587.97
2022-09-21T04:35:06.257Z,99584.78
2022-09-21T04:37:32.957Z,99589.34
2022-09-21T04:39:59.716Z,99587.00
2022-09-21T04:42:27.530Z,99593.00
2022-09-21T04:44:54.192Z,99599.41
2022-09-21T04:47:23.557Z,99595.84
2022-09-21T04:49:51.568Z,99594.22
2022-09-21T04:52:19.192Z,99604.94
2022-09-21T04:54:47.124Z,99598.66
2022-09-21T04:57:14.809Z,99605.16
2022-09-21T04:59:41.675Z,99602.47
2022-09-21T05:02:09.052Z,99605.91
2022-09-21T05:04:35.827Z,99603.66
2022-09-21T05:07:02.776Z,99606.59
2022-09-21T05:09:48.126Z,99610.38
2022-09-21T05:12:14.837Z,99620.34
2022-09-21T05:14:44.085Z,99606.31
2022-09-21T05:17:11.937Z,99614.13
2022-09-21T05:19:39.115Z,99613.06
2022-09-21T05:22:05.880Z,99616.38
2022-09-21T05:24:32.561Z,99615.53
2022-09-21T05:26:59.559Z,99618.41
2022-09-21T05:29:26.488Z,99623.72
2022-09-21T05:32:24.985Z,99625.84
2022-09-21T05:35:16.443Z,99629.69
2022-09-21T05:37:56.001Z,99627.88
2022-09-21T05:40:23.136Z,99626.75
2022-09-21T05:42:50.368Z,99625.78
2022-09-21T05:45:18.814Z,99624.16
2022-09-21T05:48:19.612Z,99625.06
2022-09-21T05:50:59.148Z,99630.19
2022-09-21T05:54:10.776Z,99634.78
2022-09-21T05:56:52.705Z,99627.88
2022-09-21T05:59:57.059Z,99642.34
2022-09-21T06:02:50.121Z,99634.78
2022-09-21T06:05:17.690Z,99637.47
2022-09-21T06:07:44.388Z,99637.13
2022-09-21T06:10:13.328Z,99641.22
2022-09-21T06:12:40.326Z,99644.09
2022-09-21T06:15:10.605Z,99649.00
2022-09-21T06:17:37.301Z,99643.84
2022-09-21T06:20:06.678Z,99646.53
2022-09-21T06:22:34.390Z,99651.50
2022-09-21T06:25:01.156Z,99646.47
2022-09-21T06:31:30.319Z,99648.31
2022-09-21T06:33:57.107Z,99648.34
2022-09-21T06:36:23.845Z,99655.66
2022-09-21T06:38:50.591Z,99648.44
2022-09-21T06:41:21.084Z,99643.88
2022-09-21T06:43:48.591Z,99647.91
2022-09-21T06:46:15.374Z,99653.91
2022-09-21T06:48:42.188Z,99646.69
2022-09-21T06:51:09.909Z,99649.66
2022-09-21T06:53:36.649Z,99645.44
2022-09-21T06:56:05.403Z,99645.22
2022-09-21T06:58:34.490Z,99651.25
2022-09-21T07:01:09.205Z,99650.81
2022-09-21T07:03:36.580Z,99657.31
2022-09-21T07:06:03.835Z,99644.38
2022-09-21T07:11:17.658Z,99648.00
2022-09-21T07:13:45.545Z,99647.00
2022-09-21T07:16:12.609Z,99644.06
2022-09-21T07:18:44.179Z,99640.31
2022-09-21T07:21:12.110Z,99641.94
2022-09-21T07:23:38.920Z,99645.25
2022-09-21T07:26:11.563Z,99645.28
2022-09-21T07:28:39.014Z,99648.00
2022-09-21T07:31:08.660Z,99647.25
2022-09-21T07:33:36.339Z,99644.88
2022-09-21T07:36:10.174Z,99648.69
2022-09-21T07:38:42.506Z,99646.56
2022-09-21T07:41:14.207Z,99649.56
2022-09-21T07:43:41.439Z,99642.81
2022-09-21T07:46:11.459Z,99651.22
2022-09-21T07:48:38.216Z,99654.22
2022-09-21T07:51:07.793Z,99645.53
2022-09-21T07:53:36.156Z,99647.41
2022-09-21T07:56:08.727Z,99651.94
2022-09-21T07:58:55.746Z,99650.22
2022-09-21T08:01:23.773Z,99645.50
2022-09-21T08:03:56.432Z,99650.00
2022-09-21T08:06:25.521Z,99646.56
2022-09-21T08:08:57.481Z,99639.31
2022-09-21T08:11:27.474Z,99647.53
2022-09-21T08:14:00.759Z,99649.47
2022-09-21T08:16:29.306Z,99653.28
2022-09-21T08:18:56.470Z,99640.53
2022-09-21T08:21:23.383Z,99645.72
2022-09-21T08:23:50.232Z,99638.16
2022-09-21T08:26:19.888Z,99640.50
2022-09-21T08:28:51.465Z,99635.75
2022-09-21T08:31:21.188Z,99642.91
2022-09-21T08:33:49.699Z,99634.41
2022-09-21T08:36:16.837Z,99644.84
2022-09-21T08:38:43.750Z,99649.69
2022-09-21T08:41:20.098Z,99643.03
2022-09-21T08:44:04.905Z,99650.47
2022-09-21T08:46:34.573Z,99639.97
2022-09-21T08:49:10.093Z,99650.13
2022-09-21T08:51:41.689Z,99645.47
2022-09-21T08:54:30.492Z,99643.41
2022-09-21T08:57:05.815Z,99647.81
2022-09-21T08:59:40.766Z,99645.38
2022-09-21T09:02:39.057Z,99645.94
2022-09-21T09:05:21.135Z,99640.69
2022-09-21T09:08:16.773Z,99639.44
2022-09-21T09:11:09.471Z,99637.88
2022-09-21T09:13:55.739Z,99641.13
2022-09-21T09:16:50.443Z,99634.53
2022-09-21T09:19:28.760Z,99638.41
2022-09-21T09:21:56.271Z,99640.66
2022-09-21T09:24:31.929Z,99643.09
2022-09-21T09:27:15.289Z,99634.53
2022-09-21T09:30:02.824Z,99634.38
2022-09-21T09:32:51.990Z,99629.50
2022-09-21T09:35:21.823Z,99623.09
2022-09-21T09:37:52.302Z,99631.28
2022-09-21T09:40:31.859Z,99628.56
2022-09-21T09:43:09.976Z,99625.53
2022-09-21T09:45:43.797Z,99631.25
2022-09-21T09:48:14.854Z,99625.97
2022-09-21T09:50:43.064Z,99624.50
2022-09-21T09:53:17.195Z,99624.53
2022-09-21T09:55:47.841Z,99618.19
2022-09-21T09:58:17.840Z,99623.59
2022-09-21T10:00:46.738Z,99614.41
2022-09-21T10:03:19.565Z,99611.00
2022-09-21T10:05:47.185Z,99618.56
2022-09-21T10:08:49.254Z,99608.25
2022-09-21T10:11:17.284Z,99607.44
2022-09-21T10:13:47.457Z,99600.81
2022-09-21T10:16:21.030Z,99598.59
2022-09-21T10:18:52.187Z,99605.94
2022-09-21T10:21:51.370Z,99598.06
2022-09-21T10:24:46.628Z,99594.47
2022-09-21T10:27:15.852Z,99595.22
2022-09-21T10:29:46.025Z,99596.16
2022-09-21T10:32:14.833Z,99597.25
2022-09-21T10:35:01.115Z,99596.06
2022-09-21T10:37:48.449Z,99604.25
2022-09-21T10:40:24.430Z,99594.41
2022-09-21T10:43:00.322Z,99593.13
2022-09-21T10:45:37.149Z,99582.88
2022-09-21T10:48:16.485Z,99577.22
2022-09-21T10:50:45.654Z,99588.59
2022-09-21T10:53:34.428Z,99582.91
2022-09-21T10:56:18.582Z,99577.94
2022-09-21T10:59:13.546Z,99578.19
2022-09-21T11:01:46.625Z,99577.94
2022-09-21T11:04:18.085Z,99574.31
2022-09-21T11:06:48.873Z,99583.38
2022-09-21T11:09:25.393Z,99585.50
2022-09-21T11:12:31.249Z,99587.44
2022-09-21T11:15:10.036Z,99583.00
2022-09-21T11:17:50.354Z,99582.31
2022-09-21T11:20:22.964Z,99584.28
2022-09-21T11:23:18.537Z,99579.94
2022-09-21T11:26:10.625Z,99574.63
2022-09-21T11:29:00.611Z,99573.69
2022-09-21T11:31:46.377Z,99574.53
2022-09-21T11:34:34.669Z,99560.91
2022-09-21T11:37:20.250Z,99572.75
2022-09-21T11:39:53.109Z,99550.31
2022-09-21T11:42:41.621Z,99562.09
2022-09-21T11:45:32.549Z,99557.91
2022-09-21T11:48:20.728Z,99554.13
2022-09-21T11:51:06.266Z,99551.00
2022-09-21T11:53:44.414Z,99546.50
2022-09-21T11:56:33.269Z,99545.06
2022-09-21T11:59:21.555Z,99537.28
2022-09-21T12:01:57.643Z,99537.28
2022-09-21T12:05:07.428Z,99527.16
2022-09-21T12:07:40.211Z,99538.09
2022-09-21T12:10:39.263Z,99531.59
2022-09-21T12:13:51.373Z,99536.63
2022-09-21T12:16:59.250Z,99531.03
2022-09-21T12:19:46.019Z,99525.97
2022-09-21T12:22:19.854Z,99530.47
2022-09-21T12:24:51.848Z,99534.91
2022-09-21T12:27:29.515Z,99533.31
2022-09-21T12:30:03.096Z,99526.91
2022-09-21T12:32:44.501Z,99518.13
2022-09-21T12:35:16.777Z,99525.44
2022-09-21T12:37:49.808Z,99525.41
2022-09-21T12:40:28.146Z,99522.34
2022-09-21T12:43:19.439Z,99516.09
2022-09-21T12:45:52.775Z,99512.47
2022-09-21T12:49:00.044Z,99508.06
2022-09-21T12:51:41.769Z,99508.75
2022-09-21T12:54:20.914Z,99513.97
2022-09-21T12:56:59.519Z,99512.13
2022-09-21T12:59:43.464Z,99508.13
2022-09-21T13:02:24.614Z,99500.38
2022-09-21T13:05:09.696Z,99509.25
2022-09-21T13:07:49.698Z,99511.66
2022-09-21T13:10:22.936Z,99509.22
2022-09-21T13:12:55.286Z,99502.69
2022-09-21T13:15:31.193Z,99506.72
2022-09-21T13:18:06.629Z,99505.69
2022-09-21T13:20:36.394Z,99504.91
2022-09-21T13:23:04.475Z,99496.88
2022-09-21T13:25:37.582Z,99486.19
2022-09-21T13:28:13.941Z,99485.16
2022-09-21T13:30:42.475Z,99490.16
2022-09-21T13:33:23.008Z,99478.56
2022-09-21T13:36:04.848Z,99476.03
2022-09-21T13:39:03.404Z,99475.56
2022-09-21T13:41:51.819Z,99481.16
2022-09-21T13:44:37.927Z,99485.22
2022-09-21T13:47:05.565Z,99477.09
2022-09-21T13:49:39.680Z,99476.06
2022-09-21T13:52:17.052Z,99472.63
2022-09-21T13:55:04.233Z,99471.50
2022-09-21T13:57:48.842Z,99466.13
2022-09-21T14:00:19.872Z,99464.28
2022-09-21T14:02:58.256Z,99458.66
2022-09-21T14:05:34.175Z,99458.91
2022-09-21T14:08:05.695Z,99457.84
2022-09-21T14:10:37.399Z,99452.91
2022-09-21T14:13:22.636Z,99440.31
2022-09-21T14:15:49.583Z,99441.69
2022-09-21T14:18:16.974Z,99445.25
2022-09-21T14:21:19.337Z,99442.78
2022-09-21T14:24:19.093Z,99445.59
2022-09-21T14:26:50.273Z,99453.03
2022-09-21T14:29:53.091Z,99442.81
2022-09-21T14:32:23.711Z,99440.00
2022-09-21T14:34:54.252Z,99438.72
2022-09-21T14:37:31.256Z,99430.06
2022-09-21T14:40:01.994Z,99426.09
2022-09-21T14:42:29.774Z,99425.63
2022-09-21T14:45:01.318Z,99416.72
2022-09-21T14:47:36.236Z,99415.09
2022-09-21T14:50:23.450Z,99407.66
2022-09-21T14:53:09.354Z,99416.59
2022-09-21T14:55:55.184Z,99411.31
2022-09-21T14:58:52.069Z,99415.69
2022-09-21T15:01:34.384Z,99419.59
2022-09-21T15:04:54.507Z,99421.97
2022-09-21T15:07:47.424Z,99427.59
2022-09-21T15:10:55.528Z,99422.19
2022-09-21T15:13:50.158Z,99404.69
2022-09-21T15:16:25.614Z,99401.19
2022-09-21T15:19:18.933Z,99402.22
2022-09-21T15:21:48.160Z,99397.44
2022-09-21T15:24:25.921Z,99395.53
2022-09-21T15:27:01.754Z,99395.06
2022-09-21T15:29:31.509Z,99387.44
2022-09-21T15:31:59.668Z,99390.56
2022-09-21T15:34:28.202Z,99391.88
2022-09-21T15:37:07.286Z,99393.28
2022-09-21T15:39:34.716Z,99401.31
2022-09-21T15:42:07.520Z,99397.63
2022-09-21T15:44:37.041Z,99400.69
2022-09-21T15:47:08.622Z,99396.25
2022-09-21T15:49:36.235Z,99400.22
2022-09-21T15:52:24.788Z,99403.06
2022-09-21T15:55:00.741Z,99401.19
2022-09-21T15:57:43.064Z,99402.91
2022-09-21T16:00:15.921Z,99396.34
2022-09-21T16:02:55.994Z,99402.94
2022-09-21T16:05:25.490Z,99400.41
2022-09-21T16:08:06.871Z,99402.47
2022-09-21T16:10:37.988Z,99400.53
2022-09-21T16:13:42.587Z,99398.91
2022-09-21T16:16:15.782Z,99401.53
2022-09-21T16:18:57.736Z,99398.47
2022-09-21T16:21:28.337Z,99406.69
2022-09-21T16:23:58.511Z,99404.94
2022-09-21T16:26:35.031Z,99408.84
2022-09-21T16:29:26.906Z,99413.84
2022-09-21T16:32:21.248Z,99413.03
2022-09-21T16:34:53.022Z,99414.16
2022-09-21T16:37:26.769Z,99412.56
2022-09-21T16:39:58.824Z,99408.38
2022-09-21T16:42:33.504Z,99409.03
2022-09-21T16:45:03.154Z,99411.97
2022-09-21T16:47:29.957Z,99405.38
2022-09-21T16:50:03.160Z,99411.16
2022-09-21T16:52:30.648Z,99420.84
2022-09-21T16:54:58.733Z,99423.44
2022-09-21T16:57:26.380Z,99420.22
2022-09-21T16:59:53.529Z,99415.22
2022-09-21T17:02:20.592Z,99419.56
2022-09-21T17:04:48.089Z,99430.53
2022-09-21T17:07:16.765Z,99420.06
2022-09-21T17:09:47.512Z,99424.09
2022-09-21T17:12:17.481Z,99426.50
2022-09-21T17:14:47.115Z,99422.97
2022-09-21T17:17:19.348Z,99430.31
2022-09-21T17:19:50.083Z,99431.22
2022-09-21T17:22:18.160Z,99427.31
2022-09-21T17:24:51.817Z,99429.53
2022-09-21T17:27:26.503Z,99422.75
2022-09-21T17:29:55.496Z,99428.09
2022-09-21T17:32:24.472Z,99425.63
2022-09-21T17:34:58.739Z,99430.25
2022-09-21T17:37:25.780Z,99435.84
2022-09-21T17:39:53.743Z,99430.63
2022-09-21T17:42:24.900Z,99435.41
2022-09-21T17:45:06.785Z,99437.69
2022-09-21T17:47:34.475Z,99435.81
2022-09-21T17:50:14.564Z,99437.56
2022-09-21T17:53:08.691Z,99439.03
2022-09-21T17:55:35.852Z,99442.22
2022-09-21T17:58:14.676Z,99443.84
2022-09-21T18:00:50.551Z,99452.75
2022-09-21T18:03:24.458Z,99444.78
2022-09-21T18:05:59.474Z,99452.94
2022-09-21T18:08:31.314Z,99445.66
2022-09-21T18:11:21.813Z,99454.38
2022-09-21T18:14:21.869Z,99449.69
2022-09-21T18:16:55.094Z,99454.28
2022-09-21T18:19:49.862Z,99458.91
2022-09-21T18:22:38.094Z,99460.09
2022-09-21T18:25:26.381Z,99465.78
2022-09-21T18:27:55.843Z,99461.22
2022-09-21T18:30:23.415Z,99469.13
2022-09-21T18:33:12.661Z,99475.69
2022-09-21T18:35:46.986Z,99478.13
2022-09-21T18:38:22.750Z,99477.72
2022-09-21T18:41:20.650Z,99474.56
2022-09-21T18:44:27.139Z,99484.84
2022-09-21T18:47:32.800Z,99481.09
2022-09-21T18:50:30.904Z,99485.50
2022-09-21T18:53:08.869Z,99480.38
2022-09-21T18:55:37.619Z,99483.81
2022-09-21T18:58:05.365Z,99492.31
2022-09-21T19:00:34.639Z,99489.06
2022-09-21T19:03:17.715Z,99487.56
2022-09-21T19:05:49.586Z,99494.78
2022-09-21T19:08:25.593Z,99491.13
2022-09-21T19:11:08.211Z,99488.47
2022-09-21T19:13:43.876Z,99495.91
2022-09-21T19:16:24.362Z,99491.91
2022-09-21T19:19:10.145Z,99496.47
2022-09-21T19:21:57.614Z,99490.69
2022-09-21T19:24:54.556Z,99491.13
2022-09-21T19:27:45.582Z,99492.75
2022-09-21T19:30:17.028Z,99489.53
2022-09-21T19:32:58.060Z,99486.75
2022-09-21T19:35:25.662Z,99492.19
2022-09-21T19:37:55.047Z,99491.50
2022-09-21T19:40:24.726Z,99490.78
2022-09-21T19:43:21.051Z,99497.91
2022-09-21T19:46:04.263Z,99496.91
2022-09-21T19:48:42.453Z,99501.25
2022-09-21T19:51:29.914Z,99507.16
2022-09-21T19:54:17.339Z,99496.03
2022-09-21T19:57:08.211Z,99493.06
2022-09-21T19:59:44.576Z,99495.25
2022-09-21T20:02:20.814Z,99497.19
2022-09-21T20:05:01.327Z,99492.56
2022-09-21T20:07:42.544Z,99489.88
2022-09-21T20:10:38.779Z,99498.28
2022-09-21T20:13:21.858Z,99493.38
2022-09-21T20:16:25.535Z,99498.03
2022-09-21T20:19:13.121Z,99506.81
2022-09-21T20:21:43.630Z,99503.06
2022-09-21T20:24:25.550Z,99503.75
2022-09-21T20:26:52.350Z,99507.50
2022-09-21T20:29:20.181Z,99509.16
2022-09-21T20:31:49.535Z,99510.81
2022-09-21T20:34:16.193Z,99514.13
2022-09-21T20:36:42.913Z,99513.59
2022-09-21T20:39:10.055Z,99513.13
2022-09-21T20:41:37.927Z,99518.84
2022-09-21T20:44:04.687Z,99511.06
2022-09-21T20:46:31.781Z,99514.06
2022-09-21T20:49:08.577Z,99518.16
2022-09-21T20:51:36.048Z,99508.41
2022-09-21T20:54:03.855Z,99508.41
2022-09-21T20:56:31.535Z,99514.13
2022-09-21T20:58:59.117Z,99517.66
2022-09-21T21:01:27.076Z,99508.47
2022-09-21T21:04:02.763Z,99522.53
2022-09-21T21:06:32.547Z,99522.28
2022-09-21T21:08:59.590Z,99517.19
2022-09-21T21:11:27.920Z,99522.59
2022-09-21T21:13:55.990Z,99516.34
2022-09-21T21:16:23.219Z,99516.06
2022-09-21T21:18:50.279Z,99511.22
2022-09-21T21:21:17.296Z,99518.28
2022-09-21T21:24:07.534Z,99523.16
2022-09-21T21:26:57.776Z,99522.63
2022-09-21T21:29:21.944Z,99518.84
2022-09-21T21:31:50.959Z,99526.97
2022-09-21T21:34:18.009Z,99523.72
2022-09-21T21:36:45.411Z,99513.16
2022-09-21T21:39:12.197Z,99513.13
2022-09-21T21:41:38.887Z,99514.22
2022-09-21T21:44:05.587Z,99516.13
2022-09-21T21:46:32.481Z,99506.91
2022-09-21T21:48:59.314Z,99521.78
2022-09-21T21:51:26.054Z,99519.38
2022-09-21T21:53:52.786Z,99510.72
2022-09-21T21:56:22.579Z,99512.59
2022-09-21T21:58:53.788Z,99509.63
2022-09-21T22:01:23.930Z,99512.91
2022-09-21T22:03:57.458Z,99504.50
2022-09-21T22:06:25.618Z,99504.22
2022-09-21T22:08:53.402Z,99505.06
2022-09-21T22:11:21.222Z,99508.03
2022-09-21T22:13:48.332Z,99512.34
2022-09-21T22:16:17.777Z,99506.69
2022-09-21T22:18:46.160Z,99511.28
2022-09-21T22:21:23.555Z,99506.94
2022-09-21T22:23:54.122Z,99502.06
2022-09-21T22:26:22.135Z,99505.59
2022-09-21T22:28:52.535Z,99501.22
2022-09-21T22:31:21.992Z,99502.84
2022-09-21T22:33:49.264Z,99504.72
2022-09-21T22:36:18.633Z,99495.03
2022-09-21T22:38:46.534Z,99495.31
2022-09-21T22:41:18.809Z,99497.22
2022-09-21T22:43:47.445Z,99504.25
2022-09-21T22:46:18.230Z,99496.91
2022-09-21T22:48:46.220Z,99495.59
2022-09-21T22:51:14.666Z,99491.53
2022-09-21T22:53:42.134Z,99495.81
2022-09-21T22:56:17.792Z,99492.28
2022-09-21T22:58:46.771Z,99500.38
2022-09-21T23:01:14.813Z,99499.56
2022-09-21T23:03:42.119Z,99495.75
2022-09-21T23:06:11.498Z,99490.09
2022-09-21T23:08:38.942Z,99487.41
2022-09-21T23:11:14.508Z,99488.50
2022-09-21T23:13:41.951Z,99484.69
2022-09-21T23:16:11.064Z,99483.63
2022-09-21T23:18:39.816Z,99478.75
2022-09-21T23:21:22.483Z,99490.13
2022-09-21T23:23:49.897Z,99477.66
2022-09-21T23:26:18.909Z,99486.84
2022-09-21T23:28:51.926Z,99482.78
2022-09-21T23:31:18.995Z,99475.50
2022-09-21T23:33:48.395Z,99473.31
2022-09-21T23:36:17.870Z,99472.22
2022-09-21T23:38:46.220Z,99472.22
2022-09-21T23:41:24.762Z,99466.53
2022-09-21T23:43:52.269Z,99464.06
2022-09-21T23:46:24.619Z,99469.41
2022-09-21T23:48:51.657Z,99469.69
2022-09-21T23:51:18.579Z,99470.22
2022-09-21T23:53:46.075Z,99462.13
2022-09-21T23:56:20.896Z,99461.38
2022-09-21T23:58:48.101Z,99464.59
